createdAt,value
2022-11-25T00:18:21.471Z,95.82
2022-11-25T00:48:24.843Z,96.06
2022-11-25T01:18:28.454Z,96.02
2022-11-25T01:48:31.748Z,96.12
2022-11-25T02:18:35.346Z,96.24
2022-11-25T02:49:07.538Z,95.64
2022-11-25T03:19:02.907Z,95.50
2022-11-25T03:49:05.827Z,95.99
2022-11-25T04:19:10.250Z,95.83
2022-11-25T04:49:13.343Z,96.38
2022-11-25T05:19:17.853Z,95.77
2022-11-25T05:49:20.952Z,95.59
2022-11-25T06:19:25.241Z,95.84
2022-11-25T06:49:28.089Z,95.64
2022-11-25T07:19:32.080Z,95.86
2022-11-25T07:49:35.445Z,95.66
2022-11-25T08:19:40.139Z,96.06
2022-11-25T08:49:43.648Z,96.28
2022-11-25T09:19:47.461Z,96.26
2022-11-25T09:49:50.461Z,96.17
2022-11-25T10:19:53.998Z,96.13
2022-11-25T10:49:57.217Z,96.17
2022-11-25T11:20:00.873Z,96.56
2022-11-25T11:50:04.589Z,96.64
2022-11-25T12:20:08.119Z,96.45
2022-11-25T12:50:11.569Z,95.76
2022-11-25T13:20:14.713Z,96.05
2022-11-25T13:50:22.056Z,95.71
2022-11-25T14:20:26.272Z,96.31
2022-11-25T14:50:37.497Z,95.79
2022-11-25T15:20:41.154Z,95.58
2022-11-25T15:50:44.379Z,95.86
2022-11-25T16:20:47.793Z,95.62
2022-11-25T16:50:51.234Z,95.61
2022-11-25T17:20:54.643Z,96.28
2022-11-25T17:50:59.501Z,96.63
2022-11-25T18:21:04.711Z,97.13
2022-11-25T18:51:07.600Z,96.95
2022-11-25T19:21:12.551Z,97.12
2022-11-25T19:51:15.722Z,96.62
2022-11-25T20:21:19.539Z,96.79
2022-11-25T20:51:23.154Z,97.09
2022-11-25T21:21:26.921Z,97.67
2022-11-25T21:51:29.836Z,97.40
2022-11-25T22:21:34.259Z,97.26
2022-11-25T22:51:37.201Z,97.40
2022-11-25T23:21:41.178Z,97.95
2022-11-25T23:51:45.897Z,97.76
